sensor_id;sensor_type;location;lat;lon;timestamp;P1;durP1;ratioP1;P2;durP2;ratioP2
39694;SDS011;25367;-35.352;149.036;2023-04-29T00:00:48;10.45;;;3.72;;
39694;SDS011;25367;-35.352;149.036;2023-04-29T00:03:17;13.13;;;3.83;;
39694;SDS011;25367;-35.352;149.036;2023-04-29T00:05:47;12.73;;;2.80;;
39694;SDS011;25367;-35.352;149.036;2023-04-29T00:08:20;16.67;;;3.50;;
39694;SDS011;25367;-35.352;149.036;2023-04-29T00:10:51;17.13;;;3.05;;
39694;SDS011;25367;-35.352;149.036;2023-04-29T00:13:20;19.10;;;3.75;;
39694;SDS011;25367;-35.352;149.036;2023-04-29T00:15:50;18.67;;;2.92;;
39694;SDS011;25367;-35.352;149.036;2023-04-29T00:18:19;14.77;;;3.63;;
39694;SDS011;25367;-35.352;149.036;2023-04-29T00:20:49;11.38;;;3.75;;
39694;SDS011;25367;-35.352;149.036;2023-04-29T00:23:26;12.10;;;3.55;;
39694;SDS011;25367;-35.352;149.036;2023-04-29T00:25:59;15.63;;;2.72;;
39694;SDS011;25367;-35.352;149.036;2023-04-29T00:28:29;15.15;;;2.92;;
39694;SDS011;25367;-35.352;149.036;2023-04-29T00:30:58;19.50;;;3.30;;
39694;SDS011;25367;-35.352;149.036;2023-04-29T00:33:28;8.27;;;2.70;;
39694;SDS011;25367;-35.352;149.036;2023-04-29T00:35:57;9.30;;;2.50;;
39694;SDS011;25367;-35.352;149.036;2023-04-29T00:38:30;19.17;;;3.20;;
39694;SDS011;25367;-35.352;149.036;2023-04-29T00:41:00;21.10;;;2.60;;
39694;SDS011;25367;-35.352;149.036;2023-04-29T00:43:29;13.98;;;3.38;;
39694;SDS011;25367;-35.352;149.036;2023-04-29T00:45:59;20.00;;;3.05;;
39694;SDS011;25367;-35.352;149.036;2023-04-29T00:48:28;17.00;;;3.03;;
39694;SDS011;25367;-35.352;149.036;2023-04-29T00:50:58;18.55;;;2.75;;
39694;SDS011;25367;-35.352;149.036;2023-04-29T00:53:31;11.88;;;3.85;;
39694;SDS011;25367;-35.352;149.036;2023-04-29T00:56:01;7.85;;;2.70;;
39694;SDS011;25367;-35.352;149.036;2023-04-29T00:58:31;22.45;;;3.63;;
39694;SDS011;25367;-35.352;149.036;2023-04-29T01:01:01;14.75;;;2.60;;
39694;SDS011;25367;-35.352;149.036;2023-04-29T01:03:33;29.42;;;3.85;;
39694;SDS011;25367;-35.352;149.036;2023-04-29T01:06:05;26.00;;;3.67;;
39694;SDS011;25367;-35.352;149.036;2023-04-29T01:08:43;21.98;;;3.75;;
39694;SDS011;25367;-35.352;149.036;2023-04-29T01:13:57;23.45;;;3.88;;
39694;SDS011;25367;-35.352;149.036;2023-04-29T01:16:29;27.83;;;3.42;;
39694;SDS011;25367;-35.352;149.036;2023-04-29T01:19:11;33.33;;;3.65;;
39694;SDS011;25367;-35.352;149.036;2023-04-29T01:21:49;27.95;;;3.85;;
39694;SDS011;25367;-35.352;149.036;2023-04-29T01:24:21;14.27;;;2.97;;
39694;SDS011;25367;-35.352;149.036;2023-04-29T01:26:53;21.93;;;3.30;;
39694;SDS011;25367;-35.352;149.036;2023-04-29T01:29:48;18.17;;;2.72;;
39694;SDS011;25367;-35.352;149.036;2023-04-29T01:32:25;16.90;;;2.90;;
39694;SDS011;25367;-35.352;149.036;2023-04-29T01:35:10;24.42;;;3.53;;
39694;SDS011;25367;-35.352;149.036;2023-04-29T01:37:48;27.27;;;3.38;;
39694;SDS011;25367;-35.352;149.036;2023-04-29T01:40:29;11.13;;;2.70;;
39694;SDS011;25367;-35.352;149.036;2023-04-29T01:43:09;11.55;;;2.72;;
39694;SDS011;25367;-35.352;149.036;2023-04-29T01:45:44;18.77;;;3.13;;
39694;SDS011;25367;-35.352;149.036;2023-04-29T01:48:16;19.95;;;3.10;;
39694;SDS011;25367;-35.352;149.036;2023-04-29T01:50:46;21.95;;;2.95;;
39694;SDS011;25367;-35.352;149.036;2023-04-29T01:53:17;26.92;;;3.08;;
39694;SDS011;25367;-35.352;149.036;2023-04-29T01:55:50;17.80;;;2.72;;
39694;SDS011;25367;-35.352;149.036;2023-04-29T01:58:51;15.88;;;2.72;;
39694;SDS011;25367;-35.352;149.036;2023-04-29T02:01:37;23.95;;;3.15;;
39694;SDS011;25367;-35.352;149.036;2023-04-29T02:04:07;14.05;;;2.92;;
39694;SDS011;25367;-35.352;149.036;2023-04-29T02:06:37;15.45;;;2.65;;
39694;SDS011;25367;-35.352;149.036;2023-04-29T02:09:06;10.82;;;2.40;;
39694;SDS011;25367;-35.352;149.036;2023-04-29T02:11:39;17.90;;;2.72;;
39694;SDS011;25367;-35.352;149.036;2023-04-29T02:14:09;23.70;;;3.33;;
39694;SDS011;25367;-35.352;149.036;2023-04-29T02:16:39;27.42;;;3.20;;
39694;SDS011;25367;-35.352;149.036;2023-04-29T02:19:11;31.80;;;3.03;;
39694;SDS011;25367;-35.352;149.036;2023-04-29T02:21:41;11.40;;;2.22;;
39694;SDS011;25367;-35.352;149.036;2023-04-29T02:24:11;20.40;;;2.72;;
39694;SDS011;25367;-35.352;149.036;2023-04-29T02:26:43;11.52;;;2.47;;
39694;SDS011;25367;-35.352;149.036;2023-04-29T02:29:12;14.03;;;2.10;;
39694;SDS011;25367;-35.352;149.036;2023-04-29T10:50:06;5.38;;;0.63;;
39694;SDS011;25367;-35.352;149.036;2023-04-29T10:52:50;11.13;;;0.70;;
39694;SDS011;25367;-35.352;149.036;2023-04-29T10:55:22;3.97;;;0.88;;
39694;SDS011;25367;-35.352;149.036;2023-04-29T10:57:52;1.20;;;0.73;;
39694;SDS011;25367;-35.352;149.036;2023-04-29T11:00:21;2.88;;;0.68;;
39694;SDS011;25367;-35.352;149.036;2023-04-29T11:02:53;3.33;;;0.90;;
39694;SDS011;25367;-35.352;149.036;2023-04-29T11:05:30;3.50;;;0.80;;
39694;SDS011;25367;-35.352;149.036;2023-04-29T11:08:10;2.17;;;0.82;;
39694;SDS011;25367;-35.352;149.036;2023-04-29T11:10:40;3.08;;;0.98;;
39694;SDS011;25367;-35.352;149.036;2023-04-29T11:13:22;6.25;;;0.93;;
39694;SDS011;25367;-35.352;149.036;2023-04-29T11:15:53;5.18;;;1.05;;
39694;SDS011;25367;-35.352;149.036;2023-04-29T11:18:30;2.90;;;0.93;;
39694;SDS011;25367;-35.352;149.036;2023-04-29T11:21:15;2.17;;;0.82;;
39694;SDS011;25367;-35.352;149.036;2023-04-29T11:23:45;1.52;;;0.57;;
39694;SDS011;25367;-35.352;149.036;2023-04-29T11:26:18;4.18;;;1.08;;
39694;SDS011;25367;-35.352;149.036;2023-04-29T11:28:48;3.45;;;0.65;;
39694;SDS011;25367;-35.352;149.036;2023-04-29T11:31:19;3.25;;;0.60;;
39694;SDS011;25367;-35.352;149.036;2023-04-29T11:36:22;3.72;;;0.73;;
39694;SDS011;25367;-35.352;149.036;2023-04-29T11:38:52;3.70;;;0.70;;
39694;SDS011;25367;-35.352;149.036;2023-04-29T11:41:21;2.33;;;0.85;;
39694;SDS011;25367;-35.352;149.036;2023-04-29T11:43:54;3.90;;;0.73;;
39694;SDS011;25367;-35.352;149.036;2023-04-29T11:46:23;2.55;;;0.73;;
